Time;durP1;ratioP1;P1;durP2;ratioP2;P2;SDS_P1;SDS_P2;PMS_P1;PMS_P2;Temp;Humidity;BMP_temperature;BMP_pressure;BME280_temperature;BME280_humidity;BME280_pressure;Samples;Min_cycle;Max_cycle;Signal;HPM_P1;HPM_P2
2021/12/11 00:00:53;;;;;;;54.50;25.38;;;;;;;;;;5034047;28;20029;-68
2021/12/11 00:03:26;;;;;;;51.30;22.90;;;;;;;;;;5044481;28;20069;-68
2021/12/11 00:06:00;;;;;;;63.42;28.90;;;;;;;;;;5038007;28;20029;-68
2021/12/11 00:08:31;;;;;;;66.63;30.45;;;;;;;;;;5055736;28;20028;-68
2021/12/11 00:11:16;;;;;;;53.60;24.77;;;;;;;;;;5055582;28;20327;-68
2021/12/11 00:13:44;;;;;;;50.67;22.73;;;;;;;;;;5055384;28;20064;-68
2021/12/11 00:16:18;;;;;;;51.17;22.80;;;;;;;;;;5037974;28;20033;-68
2021/12/11 00:18:50;;;;;;;47.13;21.83;;;;;;;;;;5055565;28;20029;-68
2021/12/11 00:21:19;;;;;;;45.80;19.58;;;;;;;;;;5037984;28;20116;-68
2021/12/11 00:23:52;;;;;;;64.55;30.80;;;;;;;;;;5037883;28;20032;-68
2021/12/11 00:26:28;;;;;;;55.63;26.50;;;;;;;;;;5037683;28;20410;-68
2021/12/11 00:28:57;;;;;;;42.25;18.42;;;;;;;;;;5055490;28;20029;-68
2021/12/11 00:31:24;;;;;;;39.22;16.15;;;;;;;;;;5055384;28;20075;-68
2021/12/11 00:33:52;;;;;;;35.03;14.65;;;;;;;;;;5038046;28;20341;-68
2021/12/11 00:36:27;;;;;;;33.80;16.20;;;;;;;;;;5055544;28;20017;-68
2021/12/11 00:39:01;;;;;;;37.83;16.40;;;;;;;;;;5037758;28;20021;-68
2021/12/11 00:41:31;;;;;;;39.70;15.05;;;;;;;;;;5055462;28;20135;-68
2021/12/11 00:44:01;;;;;;;32.05;15.02;;;;;;;;;;5058788;28;20035;-68
2021/12/11 00:46:30;;;;;;;23.27;10.35;;;;;;;;;;5059144;28;20027;-68
2021/12/11 00:49:08;;;;;;;19.00;7.97;;;;;;;;;;5059094;28;20017;-68
2021/12/11 00:51:35;;;;;;;23.60;9.82;;;;;;;;;;5058900;28;20025;-68
2021/12/11 00:54:03;;;;;;;38.83;14.25;;;;;;;;;;5058951;28;20053;-68
2021/12/11 00:56:35;;;;;;;42.53;17.13;;;;;;;;;;5059200;28;20079;-68
2021/12/11 00:59:05;;;;;;;29.48;10.93;;;;;;;;;;5058870;28;20079;-68
2021/12/11 01:01:46;;;;;;;23.67;9.45;;;;;;;;;;5041152;28;20021;-68
2021/12/11 01:04:19;;;;;;;22.30;8.35;;;;;;;;;;5058834;28;20422;-68
2021/12/11 01:06:51;;;;;;;16.95;6.45;;;;;;;;;;5058663;28;20025;-68
2021/12/11 01:09:29;;;;;;;20.52;8.18;;;;;;;;;;5058951;28;20314;-68
2021/12/11 01:12:05;;;;;;;18.40;8.75;;;;;;;;;;5058240;28;20035;-68
2021/12/11 01:14:38;;;;;;;26.23;11.63;;;;;;;;;;5058591;28;20425;-68
2021/12/11 01:17:18;;;;;;;19.13;7.63;;;;;;;;;;5058364;28;20024;-68
2021/12/11 01:19:47;;;;;;;31.77;12.52;;;;;;;;;;5040806;28;20349;-68
2021/12/11 01:22:33;;;;;;;30.52;10.77;;;;;;;;;;5040697;28;20029;-67
2021/12/11 01:25:20;;;;;;;20.60;8.05;;;;;;;;;;5058236;28;20025;-68
2021/12/11 01:27:49;;;;;;;22.52;9.63;;;;;;;;;;5058256;28;20082;-68
2021/12/11 01:30:22;;;;;;;39.20;14.38;;;;;;;;;;5058105;28;20095;-68
2021/12/11 01:32:50;;;;;;;24.52;10.00;;;;;;;;;;5058063;28;20071;-68
2021/12/11 01:35:18;;;;;;;37.28;18.17;;;;;;;;;;5058125;28;20025;-68
2021/12/11 01:37:47;;;;;;;51.50;21.33;;;;;;;;;;5058034;28;20317;-68
2021/12/11 01:40:16;;;;;;;45.15;21.00;;;;;;;;;;5058061;28;20025;-68
2021/12/11 01:42:45;;;;;;;65.07;26.10;;;;;;;;;;5057953;28;20314;-68
2021/12/11 01:45:14;;;;;;;79.90;33.25;;;;;;;;;;4996580;28;20335;-68
2021/12/11 01:47:44;;;;;;;81.70;32.33;;;;;;;;;;4996709;28;20587;-68
2021/12/11 01:50:23;;;;;;;83.03;31.17;;;;;;;;;;4980567;28;20371;-69
2021/12/11 01:52:56;;;;;;;84.55;34.67;;;;;;;;;;4996591;28;20034;-68
2021/12/11 01:55:36;;;;;;;88.45;35.88;;;;;;;;;;4978642;28;20117;-68
2021/12/11 01:58:05;;;;;;;92.45;36.63;;;;;;;;;;4996322;28;20022;-68
2021/12/11 02:00:40;;;;;;;100.40;39.72;;;;;;;;;;4996397;28;20054;-68
2021/12/11 02:03:10;;;;;;;88.55;42.00;;;;;;;;;;4980078;28;20377;-68
2021/12/11 02:05:39;;;;;;;99.53;45.15;;;;;;;;;;4980027;28;20026;-68
2021/12/11 02:08:09;;;;;;;107.68;45.30;;;;;;;;;;4996264;28;20467;-68
2021/12/11 02:10:42;;;;;;;97.55;45.40;;;;;;;;;;4996214;28;20046;-67
2021/12/11 02:13:11;;;;;;;110.63;46.55;;;;;;;;;;4996135;28;20045;-67
2021/12/11 02:15:46;;;;;;;110.05;45.92;;;;;;;;;;4996303;28;20026;-67
2021/12/11 02:18:34;;;;;;;98.20;43.10;;;;;;;;;;4979762;28;20035;-67
2021/12/11 02:21:05;;;;;;;104.85;40.72;;;;;;;;;;4995997;28;20057;-67
2021/12/11 02:23:33;;;;;;;106.63;41.30;;;;;;;;;;4995851;28;20030;-67
2021/12/11 02:26:04;;;;;;;92.25;39.65;;;;;;;;;;4995940;28;20155;-67
2021/12/11 02:28:39;;;;;;;93.05;39.40;;;;;;;;;;4979642;28;20454;-67
2021/12/11 02:31:12;;;;;;;55.97;22.13;;;;;;;;;;4995860;28;20041;-67
2021/12/11 02:33:45;;;;;;;67.88;19.95;;;;;;;;;;4995832;28;20042;-68
2021/12/11 02:36:18;;;;;;;63.63;18.73;;;;;;;;;;5028555;28;20056;-67
2021/12/11 02:38:59;;;;;;;54.53;18.73;;;;;;;;;;5036098;28;20402;-67
2021/12/11 02:41:34;;;;;;;43.83;15.38;;;;;;;;;;5035779;28;20026;-67
2021/12/11 02:44:10;;;;;;;41.65;11.95;;;;;;;;;;5036797;28;20025;-67
2021/12/11 02:46:45;;;;;;;31.73;10.85;;;;;;;;;;4995527;28;20110;-68
2021/12/11 02:49:27;;;;;;;36.05;12.27;;;;;;;;;;4995548;28;20042;-68
2021/12/11 02:52:00;;;;;;;38.10;13.73;;;;;;;;;;4995517;28;20065;-68
2021/12/11 02:54:56;;;;;;;40.22;14.15;;;;;;;;;;4995423;28;20094;-68
2021/12/11 02:57:35;;;;;;;43.60;11.30;;;;;;;;;;4956617;29;20054;-69
2021/12/11 03:00:16;;;;;;;18.13;5.53;;;;;;;;;;4956557;29;20340;-68
2021/12/11 03:02:48;;;;;;;20.73;4.88;;;;;;;;;;4956427;29;20440;-68
2021/12/11 03:05:18;;;;;;;31.08;9.45;;;;;;;;;;4956416;28;20055;-69
2021/12/11 03:07:51;;;;;;;31.10;13.60;;;;;;;;;;4956397;29;20440;-68
2021/12/11 03:10:20;;;;;;;29.88;10.60;;;;;;;;;;4956272;29;20035;-68
2021/12/11 03:12:47;;;;;;;35.45;12.02;;;;;;;;;;4956115;29;20336;-69
2021/12/11 03:15:14;;;;;;;31.58;12.65;;;;;;;;;;4956357;29;20042;-68
2021/12/11 03:17:42;;;;;;;29.25;11.25;;;;;;;;;;4966671;28;20114;-69
2021/12/11 03:20:12;;;;;;;23.38;10.95;;;;;;;;;;4959278;28;20035;-68
2021/12/11 03:22:43;;;;;;;33.58;13.43;;;;;;;;;;4975360;28;20027;-68
2021/12/11 03:25:12;;;;;;;43.13;14.93;;;;;;;;;;4975624;28;20114;-69
2021/12/11 03:27:40;;;;;;;43.10;14.82;;;;;;;;;;4959224;28;20451;-68
2021/12/11 03:30:09;;;;;;;51.75;18.67;;;;;;;;;;4959246;28;20451;-69
2021/12/11 03:32:37;;;;;;;52.05;21.30;;;;;;;;;;4977524;28;20041;-69
2021/12/11 03:35:06;;;;;;;44.25;21.65;;;;;;;;;;5034977;28;20308;-70
2021/12/11 03:37:34;;;;;;;63.80;31.92;;;;;;;;;;5035845;28;20028;-70
2021/12/11 03:40:04;;;;;;;78.55;36.40;;;;;;;;;;5034935;28;20339;-69
2021/12/11 03:42:34;;;;;;;100.50;44.25;;;;;;;;;;5034739;28;20040;-69
2021/12/11 03:45:04;;;;;;;88.95;41.90;;;;;;;;;;5035973;28;20022;-70
2021/12/11 03:47:34;;;;;;;87.03;42.88;;;;;;;;;;5035919;28;20108;-69
2021/12/11 03:50:01;;;;;;;75.53;32.83;;;;;;;;;;5034752;28;20112;-69
2021/12/11 03:52:29;;;;;;;98.97;33.90;;;;;;;;;;5035457;28;20033;-69
2021/12/11 03:54:57;;;;;;;58.70;21.20;;;;;;;;;;5035786;28;20022;-70
2021/12/11 03:57:28;;;;;;;53.92;19.52;;;;;;;;;;5035803;28;20040;-69
2021/12/11 03:59:55;;;;;;;37.95;16.50;;;;;;;;;;5035807;28;20022;-69
2021/12/11 04:02:27;;;;;;;42.13;18.80;;;;;;;;;;5035700;28;20025;-69
2021/12/11 04:04:56;;;;;;;45.63;19.27;;;;;;;;;;5035648;28;20021;-70
2021/12/11 04:07:25;;;;;;;47.33;21.77;;;;;;;;;;5035651;28;20100;-69
2021/12/11 04:09:53;;;;;;;50.30;18.83;;;;;;;;;;5035627;28;20030;-73
2021/12/11 04:12:20;;;;;;;41.70;16.73;;;;;;;;;;4994174;28;20053;-70
2021/12/11 04:14:48;;;;;;;38.08;15.43;;;;;;;;;;4994588;28;20089;-71
2021/12/11 04:17:18;;;;;;;28.83;10.88;;;;;;;;;;4978897;28;20467;-70
2021/12/11 04:19:46;;;;;;;20.92;8.20;;;;;;;;;;4998357;28;20129;-71
2021/12/11 04:22:14;;;;;;;22.70;9.45;;;;;;;;;;4981956;28;20033;-70
2021/12/11 04:24:42;;;;;;;21.80;9.18;;;;;;;;;;4998175;28;20034;-70
2021/12/11 04:27:11;;;;;;;24.05;9.63;;;;;;;;;;4998088;28;20390;-70
2021/12/11 04:29:38;;;;;;;23.90;9.80;;;;;;;;;;4998124;28;20034;-70
2021/12/11 04:32:07;;;;;;;43.22;16.95;;;;;;;;;;4998120;28;20045;-71
2021/12/11 04:34:35;;;;;;;31.80;14.20;;;;;;;;;;4981977;28;20022;-74
2021/12/11 04:37:12;;;;;;;26.50;11.85;;;;;;;;;;4998136;28;20525;-70
2021/12/11 04:39:42;;;;;;;29.70;12.18;;;;;;;;;;4982004;28;20371;-71
2021/12/11 04:42:27;;;;;;;27.05;11.45;;;;;;;;;;4998051;28;20038;-71
2021/12/11 04:44:55;;;;;;;32.10;15.05;;;;;;;;;;4997937;28;20070;-70
2021/12/11 04:47:41;;;;;;;32.35;13.98;;;;;;;;;;4997908;28;20053;-70
2021/12/11 04:50:16;;;;;;;26.80;10.80;;;;;;;;;;4978281;28;20067;-71
2021/12/11 05:04:12;;;;;;;24.58;8.95;;;;;;;;;;4954512;29;20372;-70
2021/12/11 05:06:52;;;;;;;20.25;6.78;;;;;;;;;;4958140;29;20450;-71
2021/12/11 05:09:31;;;;;;;19.58;5.25;;;;;;;;;;4958486;29;20031;-70
2021/12/11 05:12:12;;;;;;;15.77;5.78;;;;;;;;;;4958265;28;20102;-69
2021/12/11 05:14:40;;;;;;;25.80;7.82;;;;;;;;;;4942554;29;20122;-69
2021/12/11 05:17:09;;;;;;;21.30;8.82;;;;;;;;;;4958586;29;20028;-69
2021/12/11 05:19:37;;;;;;;21.25;8.85;;;;;;;;;;4942380;29;20113;-71
2021/12/11 05:22:05;;;;;;;25.65;8.13;;;;;;;;;;4959146;29;20449;-74
2021/12/11 05:24:36;;;;;;;17.35;7.75;;;;;;;;;;4958058;29;20039;-69
2021/12/11 05:27:07;;;;;;;27.90;10.23;;;;;;;;;;4958350;29;20039;-70
2021/12/11 05:29:35;;;;;;;45.05;19.98;;;;;;;;;;4958302;28;20038;-69
2021/12/11 05:32:04;;;;;;;29.73;14.15;;;;;;;;;;4958016;29;20075;-71
2021/12/11 05:34:32;;;;;;;48.28;22.20;;;;;;;;;;4947815;29;20054;-72
2021/12/11 05:37:00;;;;;;;38.17;16.58;;;;;;;;;;4963259;29;20035;-73
2021/12/11 05:39:27;;;;;;;28.17;13.60;;;;;;;;;;4989462;28;20121;-70
2021/12/11 05:41:55;;;;;;;27.00;11.48;;;;;;;;;;5037831;28;20056;-71
2021/12/11 05:44:23;;;;;;;23.23;9.38;;;;;;;;;;5037051;28;20028;-70
2021/12/11 05:46:52;;;;;;;20.98;7.55;;;;;;;;;;5037934;28;20033;-70
2021/12/11 05:49:20;;;;;;;23.35;8.30;;;;;;;;;;5038846;28;20441;-71
2021/12/11 05:51:59;;;;;;;24.48;9.00;;;;;;;;;;5038611;28;20056;-71
2021/12/11 05:54:27;;;;;;;19.80;8.43;;;;;;;;;;5036930;28;20029;-70
2021/12/11 05:56:59;;;;;;;18.90;7.32;;;;;;;;;;5036529;28;20018;-71
2021/12/11 05:59:28;;;;;;;31.08;9.90;;;;;;;;;;5037682;28;20422;-70
2021/12/11 06:02:04;;;;;;;25.13;10.70;;;;;;;;;;5037466;28;20033;-71
2021/12/11 06:04:33;;;;;;;28.45;13.60;;;;;;;;;;5036466;28;20068;-70
2021/12/11 06:07:03;;;;;;;23.98;9.30;;;;;;;;;;5036086;28;20036;-70
2021/12/11 06:09:31;;;;;;;510.58;266.55;;;;;;;;;;5036535;28;20029;-70
2021/12/11 06:12:00;;;;;;;509.45;248.80;;;;;;;;;;5036666;28;20029;-70
2021/12/11 06:14:28;;;;;;;104.13;48.75;;;;;;;;;;5039631;28;20421;-71
2021/12/11 06:16:56;;;;;;;22.25;11.27;;;;;;;;;;5057389;28;20031;-70
2021/12/11 06:19:26;;;;;;;30.45;10.88;;;;;;;;;;5057196;28;20033;-71
2021/12/11 06:21:54;;;;;;;34.42;12.93;;;;;;;;;;5056988;28;20021;-73
2021/12/11 06:24:22;;;;;;;55.15;24.20;;;;;;;;;;5039501;28;20465;-69
2021/12/11 06:26:51;;;;;;;38.45;12.35;;;;;;;;;;5057039;28;20096;-70
2021/12/11 06:29:21;;;;;;;25.58;10.50;;;;;;;;;;5039457;28;20025;-70
2021/12/11 06:31:50;;;;;;;24.17;8.65;;;;;;;;;;5056886;28;20025;-69
2021/12/11 06:34:18;;;;;;;27.77;9.82;;;;;;;;;;5039224;28;20021;-69
2021/12/11 06:36:46;;;;;;;65.85;34.75;;;;;;;;;;5039425;28;20085;-71
2021/12/11 06:39:15;;;;;;;26.25;10.93;;;;;;;;;;5038947;28;20024;-70
2021/12/11 06:41:44;;;;;;;24.98;10.98;;;;;;;;;;5056438;28;20052;-70
2021/12/11 06:44:12;;;;;;;26.70;10.85;;;;;;;;;;5056670;28;20105;-70
2021/12/11 06:46:41;;;;;;;23.38;11.50;;;;;;;;;;5039084;28;20413;-71
2021/12/11 06:49:09;;;;;;;21.50;8.23;;;;;;;;;;5056534;28;20029;-71
2021/12/11 06:51:38;;;;;;;20.20;8.82;;;;;;;;;;5056511;28;20025;-70
2021/12/11 06:54:07;;;;;;;19.20;8.45;;;;;;;;;;5056601;28;20024;-71
2021/12/11 06:56:35;;;;;;;28.90;9.48;;;;;;;;;;5038852;28;20314;-70
2021/12/11 06:59:04;;;;;;;26.80;7.75;;;;;;;;;;5056437;28;20048;-70
2021/12/11 07:01:32;;;;;;;18.38;9.02;;;;;;;;;;5038846;28;20032;-71
2021/12/11 07:04:00;;;;;;;23.92;8.75;;;;;;;;;;5056315;28;20063;-70
2021/12/11 07:06:29;;;;;;;25.58;10.43;;;;;;;;;;5056252;28;20032;-72
2021/12/11 07:08:58;;;;;;;25.08;10.30;;;;;;;;;;5038478;28;20021;-70
2021/12/11 07:11:25;;;;;;;28.83;10.90;;;;;;;;;;5056855;28;20017;-69
2021/12/11 07:13:51;;;;;;;29.00;9.07;;;;;;;;;;5055341;28;20122;-68
2021/12/11 07:16:18;;;;;;;23.85;9.73;;;;;;;;;;5055936;28;20028;-68
2021/12/11 07:18:46;;;;;;;26.13;10.65;;;;;;;;;;5038513;28;20463;-69
2021/12/11 07:21:14;;;;;;;26.33;11.10;;;;;;;;;;5056053;28;20491;-68
2021/12/11 07:23:45;;;;;;;49.28;24.20;;;;;;;;;;5038375;28;20020;-69
2021/12/11 07:26:16;;;;;;;58.08;17.08;;;;;;;;;;5038321;28;20372;-70
2021/12/11 07:28:45;;;;;;;34.78;13.95;;;;;;;;;;5055884;28;20049;-68
2021/12/11 07:31:13;;;;;;;35.05;14.13;;;;;;;;;;5056020;28;20027;-68
2021/12/11 07:33:42;;;;;;;24.10;10.70;;;;;;;;;;5055936;28;20433;-68
2021/12/11 07:36:09;;;;;;;25.58;11.48;;;;;;;;;;5038151;28;20044;-69
2021/12/11 07:38:37;;;;;;;24.05;9.73;;;;;;;;;;5038040;28;20033;-68
2021/12/11 07:41:09;;;;;;;22.23;8.85;;;;;;;;;;5055879;28;20048;-69
2021/12/11 07:43:37;;;;;;;26.13;10.25;;;;;;;;;;5038688;28;20029;-69
2021/12/11 07:46:05;;;;;;;19.52;9.55;;;;;;;;;;5055627;28;20029;-69
2021/12/11 07:48:33;;;;;;;31.52;8.15;;;;;;;;;;5055446;28;20441;-69
2021/12/11 07:51:01;;;;;;;26.95;7.60;;;;;;;;;;5037910;28;20033;-69
2021/12/11 07:53:28;;;;;;;24.92;6.80;;;;;;;;;;5054620;28;20321;-69
2021/12/11 07:55:56;;;;;;;16.15;6.97;;;;;;;;;;5055546;28;20024;-69
2021/12/11 07:58:24;;;;;;;23.50;9.55;;;;;;;;;;5055420;28;20116;-68
2021/12/11 08:00:52;;;;;;;22.48;7.30;;;;;;;;;;5037926;28;20021;-68
2021/12/11 08:03:19;;;;;;;29.88;9.32;;;;;;;;;;5055617;28;20026;-68
2021/12/11 08:05:50;;;;;;;23.38;8.63;;;;;;;;;;5054813;28;20025;-70
2021/12/11 08:08:17;;;;;;;22.38;7.80;;;;;;;;;;5054981;28;20381;-72
2021/12/11 08:10:47;;;;;;;25.00;9.32;;;;;;;;;;5037610;28;20025;-73
2021/12/11 08:13:14;;;;;;;23.08;6.00;;;;;;;;;;5054931;28;20056;-71
2021/12/11 08:15:41;;;;;;;22.85;6.63;;;;;;;;;;5055011;28;20049;-70
2021/12/11 08:18:10;;;;;;;26.52;10.60;;;;;;;;;;5055413;28;20431;-69
2021/12/11 08:20:39;;;;;;;16.10;6.30;;;;;;;;;;5037634;28;20066;-67
2021/12/11 08:23:08;;;;;;;18.77;6.50;;;;;;;;;;4994041;28;20066;-68
2021/12/11 08:25:39;;;;;;;18.05;5.50;;;;;;;;;;4994252;28;20045;-68
2021/12/11 08:28:08;;;;;;;14.40;5.53;;;;;;;;;;4994274;28;20039;-68
2021/12/11 08:30:37;;;;;;;14.63;5.70;;;;;;;;;;4994267;28;20061;-68
2021/12/11 08:33:05;;;;;;;22.83;6.80;;;;;;;;;;4993991;28;20030;-69
2021/12/11 08:35:32;;;;;;;18.38;6.75;;;;;;;;;;4977646;28;20076;-69
2021/12/11 08:38:00;;;;;;;21.92;7.57;;;;;;;;;;4994239;28;20027;-69
2021/12/11 08:40:29;;;;;;;17.15;6.60;;;;;;;;;;4994159;28;20041;-69
2021/12/11 08:43:00;;;;;;;21.77;8.10;;;;;;;;;;4994166;28;20097;-69
2021/12/11 08:45:44;;;;;;;21.20;8.13;;;;;;;;;;4994174;28;20141;-69
2021/12/11 08:48:14;;;;;;;23.60;7.25;;;;;;;;;;4993622;28;20076;-69
2021/12/11 08:50:43;;;;;;;23.75;8.48;;;;;;;;;;4993715;28;20343;-69
2021/12/11 08:53:11;;;;;;;19.35;6.28;;;;;;;;;;4993967;28;20065;-69
2021/12/11 08:55:40;;;;;;;20.92;7.22;;;;;;;;;;4977269;28;20335;-69
2021/12/11 08:58:09;;;;;;;41.83;11.77;;;;;;;;;;4993655;28;20049;-68
2021/12/11 09:00:55;;;;;;;24.95;8.82;;;;;;;;;;4977399;28;20030;-69
2021/12/11 09:03:44;;;;;;;54.28;22.42;;;;;;;;;;4994597;28;20030;-68
2021/12/11 09:06:37;;;;;;;27.13;9.80;;;;;;;;;;4990078;28;20054;-69
2021/12/11 09:09:09;;;;;;;24.25;8.75;;;;;;;;;;4939307;29;20039;-68
2021/12/11 09:11:56;;;;;;;29.35;9.88;;;;;;;;;;4939253;29;20043;-69
2021/12/11 09:14:26;;;;;;;24.25;6.93;;;;;;;;;;4976022;28;20202;-69
2021/12/11 09:16:58;;;;;;;18.17;6.85;;;;;;;;;;4980743;28;20034;-68
2021/12/11 09:19:59;;;;;;;22.45;7.68;;;;;;;;;;4980584;28;20038;-69
2021/12/11 09:22:34;;;;;;;20.05;7.10;;;;;;;;;;4939294;29;20039;-69
2021/12/11 09:25:11;;;;;;;19.73;5.82;;;;;;;;;;4939155;29;20145;-69
2021/12/11 09:27:59;;;;;;;14.75;6.20;;;;;;;;;;4939004;29;20039;-69
2021/12/11 09:30:33;;;;;;;29.98;9.88;;;;;;;;;;4938826;29;20044;-68
2021/12/11 09:33:06;;;;;;;26.55;11.50;;;;;;;;;;4938819;29;20043;-69
2021/12/11 09:35:40;;;;;;;16.60;7.50;;;;;;;;;;4923496;29;20326;-68
2021/12/11 09:38:13;;;;;;;22.38;6.90;;;;;;;;;;4939134;29;20043;-68
2021/12/11 09:40:42;;;;;;;19.15;5.68;;;;;;;;;;4938736;29;20105;-69
2021/12/11 09:43:24;;;;;;;22.20;6.65;;;;;;;;;;4938674;29;20049;-69
2021/12/11 09:45:52;;;;;;;19.98;6.28;;;;;;;;;;4950011;28;20039;-69
2021/12/11 09:48:20;;;;;;;27.83;5.93;;;;;;;;;;4976913;28;20490;-69
2021/12/11 09:51:00;;;;;;;18.77;5.45;;;;;;;;;;4960650;28;20393;-67
2021/12/11 09:53:30;;;;;;;15.60;4.90;;;;;;;;;;4976743;28;20063;-68
2021/12/11 09:55:59;;;;;;;15.93;4.28;;;;;;;;;;4986664;28;20047;-69
2021/12/11 09:58:29;;;;;;;14.80;5.07;;;;;;;;;;5057436;28;20093;-68
2021/12/11 10:01:28;;;;;;;12.68;4.78;;;;;;;;;;5057500;28;20440;-68
2021/12/11 10:04:07;;;;;;;13.05;4.05;;;;;;;;;;4957287;29;20340;-68
2021/12/11 10:06:51;;;;;;;12.43;4.43;;;;;;;;;;4941169;29;20391;-69
2021/12/11 10:09:21;;;;;;;16.20;6.43;;;;;;;;;;4957245;29;20138;-69
2021/12/11 10:12:07;;;;;;;18.08;6.68;;;;;;;;;;4941082;29;20027;-68
2021/12/11 10:14:39;;;;;;;25.95;7.05;;;;;;;;;;4956833;28;20047;-68
2021/12/11 10:17:11;;;;;;;24.25;7.70;;;;;;;;;;4957097;29;20387;-69
2021/12/11 10:19:39;;;;;;;30.08;9.27;;;;;;;;;;4957203;29;20051;-68
2021/12/11 10:22:11;;;;;;;31.17;10.00;;;;;;;;;;4957124;29;20058;-68
2021/12/11 10:24:39;;;;;;;35.03;10.63;;;;;;;;;;4941071;29;20035;-68
2021/12/11 10:27:08;;;;;;;39.20;10.05;;;;;;;;;;4957081;29;20061;-68
2021/12/11 10:29:36;;;;;;;38.45;10.75;;;;;;;;;;4940917;29;20066;-68
2021/12/11 10:32:07;;;;;;;45.33;14.18;;;;;;;;;;4940554;29;20433;-69
2021/12/11 10:34:35;;;;;;;48.13;15.30;;;;;;;;;;4956930;29;20059;-68
2021/12/11 10:37:07;;;;;;;49.85;17.25;;;;;;;;;;4956825;29;20034;-69
2021/12/11 10:39:36;;;;;;;57.70;17.85;;;;;;;;;;5010877;28;20025;-69
2021/12/11 10:42:05;;;;;;;45.55;15.20;;;;;;;;;;5056651;28;20027;-69
2021/12/11 10:44:36;;;;;;;40.10;13.20;;;;;;;;;;5056548;28;20056;-69
2021/12/11 10:47:06;;;;;;;28.27;11.52;;;;;;;;;;5056763;28;20082;-70
2021/12/11 10:49:34;;;;;;;32.03;12.68;;;;;;;;;;5038981;28;20444;-69
2021/12/11 10:52:05;;;;;;;36.58;14.50;;;;;;;;;;5034611;28;20045;-70
2021/12/11 10:54:33;;;;;;;52.38;15.82;;;;;;;;;;5034685;28;20088;-70
2021/12/11 10:57:01;;;;;;;44.85;13.98;;;;;;;;;;5018466;28;20381;-69
2021/12/11 10:59:30;;;;;;;49.10;15.90;;;;;;;;;;5018004;28;20457;-68
2021/12/11 11:02:04;;;;;;;57.80;16.95;;;;;;;;;;5034516;28;20049;-68
2021/12/11 11:04:36;;;;;;;53.63;15.90;;;;;;;;;;5034422;28;20088;-68
2021/12/11 11:07:07;;;;;;;48.70;16.77;;;;;;;;;;5017759;28;20410;-68
2021/12/11 11:09:34;;;;;;;64.43;20.23;;;;;;;;;;5034432;28;20056;-68
2021/12/11 11:12:04;;;;;;;63.60;23.55;;;;;;;;;;5017612;28;20065;-68
2021/12/11 11:14:32;;;;;;;63.45;26.65;;;;;;;;;;5017577;28;20045;-68
2021/12/11 11:17:03;;;;;;;70.88;28.05;;;;;;;;;;5034316;28;20128;-68
2021/12/11 11:19:31;;;;;;;83.40;32.72;;;;;;;;;;5034432;28;20073;-68
2021/12/11 11:22:00;;;;;;;84.63;34.38;;;;;;;;;;5035887;28;20056;-67
2021/12/11 11:24:30;;;;;;;95.15;36.65;;;;;;;;;;5056104;28;20099;-67
2021/12/11 11:26:58;;;;;;;96.90;39.97;;;;;;;;;;5056090;28;20326;-68
2021/12/11 11:29:27;;;;;;;102.10;43.20;;;;;;;;;;5056125;28;20021;-67
2021/12/11 11:31:58;;;;;;;124.93;49.22;;;;;;;;;;5055984;28;20021;-68
2021/12/11 11:34:26;;;;;;;120.82;51.97;;;;;;;;;;5056056;28;20095;-68
2021/12/11 11:36:56;;;;;;;128.77;54.72;;;;;;;;;;5038055;28;20079;-69
2021/12/11 11:39:25;;;;;;;119.55;54.75;;;;;;;;;;5038001;28;20063;-70
2021/12/11 11:41:58;;;;;;;124.40;53.22;;;;;;;;;;5038369;28;20025;-70
2021/12/11 11:44:27;;;;;;;123.90;54.63;;;;;;;;;;5055805;28;20018;-69
2021/12/11 11:46:56;;;;;;;119.35;52.38;;;;;;;;;;5038020;28;20025;-70
2021/12/11 11:49:24;;;;;;;112.68;49.13;;;;;;;;;;5038129;28;20025;-73
2021/12/11 11:51:54;;;;;;;104.88;47.85;;;;;;;;;;5055778;28;20034;-70
2021/12/11 11:54:22;;;;;;;102.80;41.45;;;;;;;;;;5055739;28;20418;-70
2021/12/11 11:56:56;;;;;;;87.97;38.65;;;;;;;;;;5055794;28;20025;-71
2021/12/11 11:59:24;;;;;;;92.10;39.08;;;;;;;;;;5038043;28;20032;-71
2021/12/11 12:02:00;;;;;;;99.47;40.95;;;;;;;;;;5055913;28;20314;-70
2021/12/11 12:04:28;;;;;;;90.00;40.45;;;;;;;;;;5055630;28;20028;-70
2021/12/11 12:06:59;;;;;;;94.72;43.85;;;;;;;;;;5055717;28;20017;-71
2021/12/11 12:09:28;;;;;;;99.40;48.38;;;;;;;;;;5055473;28;20025;-72
2021/12/11 12:11:58;;;;;;;113.90;45.10;;;;;;;;;;5055887;28;20021;-71
2021/12/11 12:14:27;;;;;;;76.85;36.47;;;;;;;;;;5037721;28;20072;-71
2021/12/11 12:16:55;;;;;;;74.25;32.97;;;;;;;;;;4974755;28;20045;-71
2021/12/11 12:19:28;;;;;;;69.65;33.13;;;;;;;;;;4975203;28;20038;-71
2021/12/11 12:21:57;;;;;;;76.63;31.50;;;;;;;;;;4974956;28;20031;-70
2021/12/11 12:24:27;;;;;;;70.22;35.45;;;;;;;;;;4974955;28;20042;-69
2021/12/11 12:26:55;;;;;;;71.13;35.88;;;;;;;;;;4974823;28;20380;-69
2021/12/11 12:29:23;;;;;;;88.40;38.65;;;;;;;;;;4974839;28;20152;-69
2021/12/11 12:31:57;;;;;;;81.97;38.90;;;;;;;;;;4974908;28;20035;-70
2021/12/11 12:34:25;;;;;;;81.78;39.33;;;;;;;;;;4974880;28;20031;-70
2021/12/11 12:36:53;;;;;;;108.20;45.95;;;;;;;;;;4974706;28;20103;-70
2021/12/11 12:39:24;;;;;;;104.40;47.90;;;;;;;;;;4976934;28;20086;-69
2021/12/11 12:42:15;;;;;;;95.50;44.22;;;;;;;;;;4978347;28;20448;-69
2021/12/11 12:44:43;;;;;;;102.43;42.40;;;;;;;;;;4978137;28;20105;-71
2021/12/11 12:47:13;;;;;;;92.63;41.67;;;;;;;;;;4982636;28;20058;-74
2021/12/11 12:49:42;;;;;;;101.05;42.15;;;;;;;;;;4998019;28;20030;-74
2021/12/11 12:52:13;;;;;;;90.28;41.60;;;;;;;;;;4999640;28;20034;-71
2021/12/11 12:54:40;;;;;;;91.72;44.35;;;;;;;;;;4981624;28;20139;-69
2021/12/11 12:57:16;;;;;;;94.53;42.10;;;;;;;;;;4998009;28;20313;-70
2021/12/11 12:59:50;;;;;;;100.03;43.63;;;;;;;;;;5003101;28;20586;-70
2021/12/11 13:02:20;;;;;;;82.63;40.70;;;;;;;;;;5059108;28;20113;-70
2021/12/11 13:04:54;;;;;;;80.63;36.17;;;;;;;;;;5058862;28;20052;-70
2021/12/11 13:07:22;;;;;;;77.85;34.10;;;;;;;;;;5058818;28;20112;-69
2021/12/11 13:09:55;;;;;;;68.35;31.63;;;;;;;;;;5058805;28;20057;-70
2021/12/11 13:12:27;;;;;;;78.18;30.83;;;;;;;;;;5058278;28;20107;-70
2021/12/11 13:14:56;;;;;;;77.85;31.20;;;;;;;;;;5058668;28;20425;-69
2021/12/11 13:17:30;;;;;;;74.43;35.25;;;;;;;;;;5040846;28;20079;-69
2021/12/11 13:20:02;;;;;;;74.22;35.47;;;;;;;;;;5058453;28;20025;-69
2021/12/11 13:22:34;;;;;;;88.40;39.42;;;;;;;;;;5040804;28;20033;-69
2021/12/11 13:25:05;;;;;;;84.45;39.45;;;;;;;;;;5058332;28;20397;-70
2021/12/11 13:27:33;;;;;;;90.85;37.95;;;;;;;;;;5058305;28;20048;-70
2021/12/11 13:30:03;;;;;;;116.07;43.38;;;;;;;;;;5040545;28;20056;-69
2021/12/11 13:32:32;;;;;;;92.22;41.25;;;;;;;;;;4996987;28;20111;-69
2021/12/11 13:35:04;;;;;;;103.00;45.17;;;;;;;;;;4997098;28;20416;-70
2021/12/11 13:37:32;;;;;;;100.13;44.78;;;;;;;;;;4997068;28;20034;-70
2021/12/11 13:40:00;;;;;;;96.18;45.00;;;;;;;;;;4997006;28;20038;-70
2021/12/11 13:42:29;;;;;;;97.10;43.63;;;;;;;;;;4980522;28;20026;-70
2021/12/11 13:44:59;;;;;;;82.18;40.75;;;;;;;;;;4980562;28;20058;-70
2021/12/11 13:47:28;;;;;;;88.03;42.85;;;;;;;;;;4981666;28;20089;-70
2021/12/11 13:49:58;;;;;;;88.95;43.60;;;;;;;;;;4995948;28;20037;-70
2021/12/11 13:52:25;;;;;;;94.85;42.28;;;;;;;;;;4980514;28;20034;-70
2021/12/11 13:54:53;;;;;;;103.38;43.85;;;;;;;;;;4997102;28;20470;-71
2021/12/11 13:57:24;;;;;;;94.00;42.53;;;;;;;;;;4997144;28;20427;-70
2021/12/11 13:59:56;;;;;;;98.43;44.63;;;;;;;;;;4996794;28;20026;-69
2021/12/11 14:02:25;;;;;;;97.55;43.65;;;;;;;;;;4996648;28;20060;-69
2021/12/11 14:04:53;;;;;;;106.32;45.75;;;;;;;;;;4996836;28;20037;-69
2021/12/11 14:07:22;;;;;;;102.85;44.47;;;;;;;;;;4996545;28;20427;-72
2021/12/11 14:10:00;;;;;;;98.57;43.45;;;;;;;;;;4996421;28;20121;-69
2021/12/11 14:12:28;;;;;;;96.35;41.97;;;;;;;;;;4995778;28;20062;-69
2021/12/11 14:14:59;;;;;;;98.80;41.92;;;;;;;;;;4980007;28;20018;-72
2021/12/11 14:17:27;;;;;;;98.15;41.53;;;;;;;;;;5035199;28;20418;-69
2021/12/11 14:19:56;;;;;;;86.55;38.28;;;;;;;;;;5037880;28;20036;-70
2021/12/11 14:22:23;;;;;;;89.78;36.10;;;;;;;;;;5036959;28;20064;-70
2021/12/11 14:24:52;;;;;;;86.68;36.75;;;;;;;;;;5037045;28;20034;-72
2021/12/11 14:27:20;;;;;;;92.38;35.70;;;;;;;;;;5037917;28;20025;-71
2021/12/11 14:29:50;;;;;;;84.30;36.17;;;;;;;;;;5037284;28;20025;-70
2021/12/11 14:32:20;;;;;;;87.05;38.72;;;;;;;;;;5037911;28;20068;-71
2021/12/11 14:34:48;;;;;;;80.30;36.95;;;;;;;;;;5037630;28;20080;-70
2021/12/11 14:37:16;;;;;;;81.18;37.75;;;;;;;;;;5036469;28;20032;-73
2021/12/11 14:39:47;;;;;;;74.25;35.60;;;;;;;;;;5036832;28;20020;-70
2021/12/11 14:42:17;;;;;;;84.53;35.83;;;;;;;;;;5036832;28;20055;-69
2021/12/11 14:44:45;;;;;;;88.38;35.03;;;;;;;;;;5035827;28;20037;-69
2021/12/11 14:47:17;;;;;;;90.03;33.45;;;;;;;;;;5037384;28;20368;-70
2021/12/11 14:49:46;;;;;;;75.65;31.00;;;;;;;;;;4996659;28;20035;-71
2021/12/11 14:52:14;;;;;;;85.00;34.10;;;;;;;;;;4979478;28;20042;-70